Time;durP1;ratioP1;P1;durP2;ratioP2;P2;SDS_P1;SDS_P2;PMS_P1;PMS_P2;Temp;Humidity;BMP_temperature;BMP_pressure;BME280_temperature;BME280_humidity;BME280_pressure;Samples;Min_cycle;Max_cycle;Signal;HPM_P1;HPM_P2
2022/01/08 00:01:13;;;;;;;49.55;21.07;;;;;;;-2.48;63.91;100293.68;1723748;83;25651;-73
2022/01/08 00:03:40;;;;;;;46.55;20.60;;;;;;;-2.51;64.21;100289.62;1738017;82;28018;-73
2022/01/08 00:06:08;;;;;;;44.67;18.82;;;;;;;-2.51;64.15;100291.47;1756672;81;25737;-73
2022/01/08 00:08:35;;;;;;;51.95;21.00;;;;;;;-2.53;64.16;100290.89;1759115;81;25667;-74
2022/01/08 00:11:02;;;;;;;43.85;19.32;;;;;;;-2.55;64.11;100278.39;1723527;83;25676;-73
2022/01/08 00:13:29;;;;;;;49.58;20.27;;;;;;;-2.57;64.18;100278.61;1737855;81;25523;-73
2022/01/08 00:15:55;;;;;;;47.75;20.68;;;;;;;-2.59;64.27;100274.55;1737876;82;27331;-74
2022/01/08 00:18:21;;;;;;;49.08;19.15;;;;;;;-2.59;64.21;100278.53;1711265;82;25676;-74
2022/01/08 00:20:48;;;;;;;45.55;19.85;;;;;;;-2.63;64.35;100271.02;1737825;82;25547;-74
2022/01/08 00:23:14;;;;;;;40.48;19.40;;;;;;;-2.65;64.31;100265.14;1737843;82;25753;-74
2022/01/08 00:25:41;;;;;;;48.05;21.02;;;;;;;-2.66;64.60;100265.36;1737465;82;25553;-74
2022/01/08 00:28:07;;;;;;;46.58;19.80;;;;;;;-2.68;64.59;100263.45;1737835;82;27313;-74
2022/01/08 00:30:33;;;;;;;42.62;19.48;;;;;;;-2.70;64.61;100257.05;1784983;80;25534;-74
2022/01/08 00:33:00;;;;;;;47.15;19.67;;;;;;;-2.73;64.51;100255.38;1782578;80;25663;-73
2022/01/08 00:35:33;;;;;;;45.03;19.85;;;;;;;-2.75;64.65;100249.49;1789146;80;25595;-74
2022/01/08 00:38:01;;;;;;;48.63;23.05;;;;;;;-2.78;64.76;100250.73;1731497;80;25695;-74
2022/01/08 00:40:29;;;;;;;42.30;19.73;;;;;;;-2.79;64.90;100252.27;1787777;80;27895;-76
2022/01/08 00:42:56;;;;;;;40.73;18.30;;;;;;;-2.84;64.52;100249.78;1787808;80;25674;-74
2022/01/08 00:45:23;;;;;;;42.70;18.20;;;;;;;-2.87;64.65;100252.87;1787841;80;25688;-75
2022/01/08 00:47:50;;;;;;;43.33;19.25;;;;;;;-2.87;64.82;100244.13;1759765;80;25674;-74
2022/01/08 00:50:17;;;;;;;46.40;19.07;;;;;;;-2.90;65.02;100258.59;1787824;80;25284;-74
2022/01/08 00:52:44;;;;;;;52.73;19.90;;;;;;;-2.93;65.08;100249.77;1787948;80;27315;-74
2022/01/08 00:55:12;;;;;;;46.60;18.37;;;;;;;-2.95;65.27;100247.06;1787632;80;25531;-75
2022/01/08 00:57:39;;;;;;;45.52;18.90;;;;;;;-2.97;65.17;100235.89;1761682;80;25648;-75
2022/01/08 01:00:11;;;;;;;49.23;18.20;;;;;;;-3.01;65.38;100236.85;1761105;80;25646;-75
2022/01/08 01:02:39;;;;;;;38.78;18.70;;;;;;;-3.06;65.40;100241.47;1787726;80;25679;-75
2022/01/08 01:05:08;;;;;;;40.00;19.25;;;;;;;-3.07;65.37;100239.84;1787896;80;26999;-75
2022/01/08 01:07:35;;;;;;;44.05;19.48;;;;;;;-3.09;65.51;100239.78;1761393;80;25694;-75
2022/01/08 01:10:04;;;;;;;42.83;18.80;;;;;;;-3.10;65.55;100237.66;1787482;80;25537;-74
2022/01/08 01:12:31;;;;;;;39.70;18.15;;;;;;;-3.13;65.57;100224.03;1787867;80;25733;-75
2022/01/08 01:14:57;;;;;;;43.35;18.65;;;;;;;-3.16;65.68;100223.17;1788242;80;25616;-75
2022/01/08 01:17:23;;;;;;;40.60;17.65;;;;;;;-3.19;65.70;100226.53;1788200;80;27352;-75
2022/01/08 01:19:50;;;;;;;45.78;19.40;;;;;;;-3.23;65.71;100220.08;1788178;80;25536;-75
2022/01/08 01:22:21;;;;;;;43.30;17.90;;;;;;;-3.22;65.84;100227.00;1788212;80;25635;-75
2022/01/08 01:24:49;;;;;;;43.17;18.75;;;;;;;-3.24;65.90;100220.29;1734448;82;34745;-75
2022/01/08 01:27:49;;;;;;;46.37;18.67;;;;;;;-3.28;65.97;100219.13;1766866;81;25590;-75
2022/01/08 01:48:25;;;;;;;40.28;16.93;;;;;;;-3.46;66.59;100194.77;1699567;84;25453;-75
2022/01/08 01:50:52;;;;;;;37.28;17.23;;;;;;;-3.49;66.70;100188.09;1699407;84;25699;-75
2022/01/08 01:53:19;;;;;;;44.63;18.32;;;;;;;-3.51;66.78;100184.04;1699448;84;25569;-75
2022/01/08 01:55:50;;;;;;;45.85;18.92;;;;;;;-3.55;66.85;100188.16;1699497;84;27442;-75
2022/01/08 01:58:18;;;;;;;42.10;19.23;;;;;;;-3.57;66.94;100187.05;1699419;84;25586;-75
2022/01/08 02:00:48;;;;;;;47.08;19.20;;;;;;;-3.61;66.92;100184.53;1699506;84;25509;-75
2022/01/08 02:03:19;;;;;;;44.03;18.20;;;;;;;-3.65;66.96;100183.36;1699492;84;25673;-75
2022/01/08 02:05:46;;;;;;;41.83;17.82;;;;;;;-3.67;67.02;100182.77;1697651;84;25590;-74
2022/01/08 02:08:14;;;;;;;43.28;18.37;;;;;;;-3.67;67.09;100186.74;1699602;84;27338;-75
2022/01/08 02:10:41;;;;;;;42.05;17.55;;;;;;;-3.69;67.12;100186.95;1727378;81;25680;-75
2022/01/08 02:13:07;;;;;;;49.67;19.30;;;;;;;-3.70;67.14;100179.23;1734812;82;25560;-75
2022/01/08 02:15:35;;;;;;;47.17;19.07;;;;;;;-3.73;67.26;100180.47;1782997;80;25630;-76
2022/01/08 02:18:01;;;;;;;40.50;17.62;;;;;;;-3.74;67.25;100176.22;1788285;80;25387;-76
2022/01/08 02:20:28;;;;;;;45.88;18.48;;;;;;;-3.77;67.31;100170.05;1761659;80;27251;-75
2022/01/08 02:22:54;;;;;;;46.45;19.60;;;;;;;-3.78;67.34;100175.85;1788225;80;25585;-75
2022/01/08 02:25:22;;;;;;;43.60;18.52;;;;;;;-3.79;67.40;100164.17;1788335;80;25376;-75
2022/01/08 02:27:50;;;;;;;43.80;19.02;;;;;;;-3.82;67.43;100174.65;1761793;80;26356;-75
2022/01/08 02:30:17;;;;;;;40.17;17.05;;;;;;;-3.83;67.52;100165.61;1788639;80;25581;-75
2022/01/08 02:32:45;;;;;;;38.78;17.95;;;;;;;-3.85;67.54;100164.50;1789173;80;28069;-75
2022/01/08 02:35:12;;;;;;;42.10;16.82;;;;;;;-3.87;67.62;100157.31;1789722;80;25374;-74
2022/01/08 02:37:38;;;;;;;43.02;18.80;;;;;;;-3.87;67.61;100163.13;1789448;80;25616;-74
2022/01/08 02:40:08;;;;;;;43.68;17.92;;;;;;;-3.87;67.60;100168.41;1789191;80;26143;-74
2022/01/08 02:42:49;;;;;;;38.28;17.67;;;;;;;-3.89;67.57;100159.37;1789012;80;25393;-74
2022/01/08 02:45:09;;;;;;;40.55;18.12;;;;;;;-3.92;67.67;100151.87;1739719;81;27219;-74
2022/01/08 02:47:35;;;;;;;37.65;13.95;;;;;;;-3.95;67.51;100148.33;1769578;81;28389;-74
2022/01/08 02:50:03;;;;;;;38.45;17.07;;;;;;;-3.98;67.74;100148.27;1769496;81;25514;-74
2022/01/08 02:52:29;;;;;;;40.15;18.30;;;;;;;-3.97;67.71;100143.78;1769502;81;25637;-76
2022/01/08 02:54:56;;;;;;;36.70;16.95;;;;;;;-3.98;67.80;100145.63;1769557;81;25605;-75
2022/01/08 02:57:22;;;;;;;44.73;17.57;;;;;;;-4.01;67.79;100150.02;1741629;81;27499;-75
2022/01/08 02:59:49;;;;;;;38.35;17.62;;;;;;;-4.04;67.83;100144.36;1786115;80;25648;-75
2022/01/08 03:02:15;;;;;;;40.12;16.50;;;;;;;-4.05;67.86;100144.88;1736497;80;25450;-75
2022/01/08 03:04:42;;;;;;;33.60;15.63;;;;;;;-4.09;67.95;100140.23;1786317;80;25600;-75
2022/01/08 03:07:08;;;;;;;43.25;17.00;;;;;;;-4.10;67.91;100139.92;1786391;80;25383;-78
2022/01/08 03:09:40;;;;;;;40.25;16.82;;;;;;;-4.12;67.93;100134.85;1786047;80;27875;-75
2022/01/08 03:12:04;;;;;;;43.35;16.62;;;;;;;-4.17;67.98;100137.33;1740591;81;25438;-74
2022/01/08 03:14:30;;;;;;;39.08;17.35;;;;;;;-4.18;68.10;100133.89;1769527;81;25589;-74
2022/01/08 03:16:57;;;;;;;37.67;17.73;;;;;;;-4.18;68.21;100132.57;1785976;80;25609;-74
2022/01/08 03:19:23;;;;;;;37.73;16.20;;;;;;;-4.19;68.24;100136.75;1786072;80;25528;-74
2022/01/08 03:21:53;;;;;;;34.35;15.15;;;;;;;-4.22;68.21;100133.20;1785983;80;27937;-75
2022/01/08 03:24:27;;;;;;;37.53;17.07;;;;;;;-4.25;68.28;100125.73;1785778;80;25456;-75
2022/01/08 03:26:47;;;;;;;37.10;16.27;;;;;;;-4.28;68.45;100126.16;1784953;80;25379;-75
2022/01/08 03:29:13;;;;;;;36.10;16.93;;;;;;;-4.30;68.49;100127.70;1758822;80;25637;-75
2022/01/08 03:31:40;;;;;;;40.33;16.77;;;;;;;-4.32;68.55;100125.78;1783088;80;25585;-75
2022/01/08 03:34:06;;;;;;;33.35;16.17;;;;;;;-4.34;68.67;100128.64;1783052;80;27323;-75
2022/01/08 03:36:35;;;;;;;36.23;15.78;;;;;;;-4.36;68.81;100120.62;1783326;80;25397;-75
2022/01/08 03:39:02;;;;;;;42.23;18.63;;;;;;;-4.39;68.75;100116.59;1783940;80;25521;-74
2022/01/08 03:41:31;;;;;;;43.40;16.50;;;;;;;-4.39;68.87;100109.16;1756359;80;26298;-75
2022/01/08 03:43:58;;;;;;;32.65;15.95;;;;;;;-4.41;68.94;100116.49;1783052;80;25573;-75
2022/01/08 03:46:28;;;;;;;37.50;15.18;;;;;;;-4.43;69.04;100116.70;1782956;80;27434;-75
2022/01/08 03:51:30;;;;;;;38.73;15.25;;;;;;;-4.49;69.13;100113.62;1782950;80;25581;-75
2022/01/08 03:53:57;;;;;;;42.33;16.00;;;;;;;-4.52;69.06;100119.31;1756456;80;26154;-76
2022/01/08 03:56:25;;;;;;;38.13;16.12;;;;;;;-4.55;69.25;100106.54;1782916;80;25472;-76
2022/01/08 03:58:52;;;;;;;38.08;16.15;;;;;;;-4.57;69.23;100115.98;1782887;80;27345;-75
2022/01/08 04:01:18;;;;;;;37.65;16.25;;;;;;;-4.61;69.26;100113.49;1782831;80;25457;-75
2022/01/08 04:03:46;;;;;;;34.48;15.55;;;;;;;-4.64;69.41;100118.39;1756980;80;25484;-75
2022/01/08 04:06:13;;;;;;;34.85;15.95;;;;;;;-4.65;69.47;100108.84;1784091;80;25658;-75
2022/01/08 04:08:39;;;;;;;34.20;16.40;;;;;;;-4.69;69.45;100111.10;1782961;80;25549;-75
2022/01/08 04:11:06;;;;;;;35.78;15.72;;;;;;;-4.71;69.55;100107.88;1782881;80;27440;-75
2022/01/08 04:13:36;;;;;;;33.05;14.87;;;;;;;-4.74;69.65;100103.02;1782848;80;25648;-75
2022/01/08 04:16:09;;;;;;;35.95;15.60;;;;;;;-4.76;69.69;100099.78;1728803;82;25464;-75
2022/01/08 04:18:28;;;;;;;33.63;14.58;;;;;;;-4.78;69.90;100102.63;1783787;80;26335;-75
2022/01/08 04:21:21;;;;;;;37.23;16.50;;;;;;;-4.80;70.01;100098.57;1783024;80;25543;-75
2022/01/08 04:23:26;;;;;;;37.53;16.25;;;;;;;-4.82;69.97;100098.78;1784100;80;28110;-75
2022/01/08 04:25:53;;;;;;;36.98;15.00;;;;;;;-4.84;69.92;100105.31;1761621;80;25556;-75
2022/01/08 04:28:20;;;;;;;42.90;17.20;;;;;;;-4.88;69.99;100099.13;1788080;80;25379;-75
2022/01/08 04:30:46;;;;;;;37.48;16.40;;;;;;;-4.89;70.11;100099.34;1788156;80;25601;-75
2022/01/08 04:33:13;;;;;;;40.45;17.12;;;;;;;-4.90;70.05;100101.70;1788213;80;25549;-75
2022/01/08 04:35:40;;;;;;;41.55;16.50;;;;;;;-4.92;70.29;100097.11;1790011;80;27325;-75
2022/01/08 04:38:07;;;;;;;38.75;16.80;;;;;;;-4.95;70.16;100096.24;1788867;80;25774;-75
2022/01/08 04:40:34;;;;;;;37.42;16.40;;;;;;;-4.99;70.27;100098.47;1788164;80;25541;-75
2022/01/08 04:43:02;;;;;;;34.63;15.78;;;;;;;-4.99;70.33;100089.75;1788158;80;25786;-75
2022/01/08 04:45:29;;;;;;;34.67;16.12;;;;;;;-5.03;70.28;100082.77;1788203;80;25612;-75
2022/01/08 04:47:59;;;;;;;41.63;16.55;;;;;;;-5.06;70.43;100087.15;1788181;80;27903;-75
2022/01/08 04:50:27;;;;;;;41.15;17.35;;;;;;;-5.09;70.51;100080.97;1788194;80;25680;-75
2022/01/08 04:52:56;;;;;;;43.28;16.50;;;;;;;-5.11;70.60;100075.94;1788173;80;25475;-75
2022/01/08 04:55:23;;;;;;;37.63;16.60;;;;;;;-5.11;70.63;100073.78;1788247;80;26272;-75
2022/01/08 04:57:50;;;;;;;41.95;15.83;;;;;;;-5.13;70.68;100080.59;1788208;80;25591;-75
2022/01/08 05:00:19;;;;;;;36.48;17.35;;;;;;;-5.14;70.63;100084.75;1788146;80;28289;-75
2022/01/08 05:02:46;;;;;;;;;;;;;;;-5.17;70.79;100075.96;1790748;80;25613;-75
2022/01/08 05:05:12;;;;;;;36.95;14.98;;;;;;;-5.20;70.69;100078.50;1789309;80;25398;-75
2022/01/08 05:07:39;;;;;;;34.67;16.00;;;;;;;-5.23;70.77;100079.43;1788885;80;25790;-75
2022/01/08 05:10:07;;;;;;;38.05;15.58;;;;;;;-5.25;70.94;100076.48;1736473;80;25485;-75
2022/01/08 05:12:35;;;;;;;37.75;16.42;;;;;;;-5.25;71.10;100072.52;1788174;80;27498;-75
2022/01/08 05:15:02;;;;;;;41.53;17.12;;;;;;;-5.25;71.06;100067.25;1788065;80;25385;-75
2022/01/08 05:17:34;;;;;;;41.95;16.67;;;;;;;-5.25;71.08;100067.77;1788188;80;25397;-75
2022/01/08 05:20:01;;;;;;;36.65;16.00;;;;;;;-5.26;71.10;100064.85;1733987;81;25646;-75
2022/01/08 05:22:29;;;;;;;36.38;15.55;;;;;;;-5.27;71.21;100064.02;1766676;81;25383;-75
2022/01/08 05:24:57;;;;;;;38.28;15.53;;;;;;;-5.28;71.14;100065.06;1766574;79;27334;-75
2022/01/08 05:27:24;;;;;;;36.48;15.23;;;;;;;-5.31;71.16;100063.33;1766623;81;25545;-75
2022/01/08 05:29:52;;;;;;;38.25;17.37;;;;;;;-5.34;71.18;100065.89;1756236;80;25558;-76
2022/01/08 05:32:20;;;;;;;36.03;15.58;;;;;;;-5.32;71.30;100072.27;1788090;80;26373;-75
2022/01/08 05:34:50;;;;;;;42.23;15.70;;;;;;;-5.33;71.26;100071.47;1789304;80;25468;-74
2022/01/08 05:37:19;;;;;;;32.42;15.43;;;;;;;-5.35;71.30;100058.98;1788866;80;27392;-75
2022/01/08 05:39:47;;;;;;;40.00;16.70;;;;;;;-5.35;71.31;100067.41;1788307;80;25636;-75
2022/01/08 05:42:14;;;;;;;38.48;16.60;;;;;;;-5.38;71.33;100065.19;1788129;80;25683;-75
2022/01/08 05:44:41;;;;;;;40.65;16.25;;;;;;;-5.37;71.32;100067.62;1761622;80;26227;-75
2022/01/08 05:47:08;;;;;;;35.92;16.15;;;;;;;-5.41;71.30;100063.80;1788314;80;25441;-75
2022/01/08 05:49:34;;;;;;;35.23;16.02;;;;;;;-5.43;71.31;100068.47;1788147;80;27375;-75
2022/01/08 05:52:00;;;;;;;35.13;15.88;;;;;;;-5.44;71.45;100068.16;1788031;80;25393;-75
2022/01/08 05:54:27;;;;;;;39.73;16.27;;;;;;;-5.43;71.47;100064.52;1788143;80;25514;-75
2022/01/08 05:56:54;;;;;;;41.23;15.88;;;;;;;-5.43;71.50;100067.16;1761511;80;26183;-75
2022/01/08 05:59:22;;;;;;;36.23;16.35;;;;;;;-5.43;71.53;100068.47;1736496;80;25457;-75
2022/01/08 06:01:48;;;;;;;36.98;16.12;;;;;;;-5.42;71.50;100066.64;1788118;80;27316;-75
2022/01/08 06:04:15;;;;;;;36.95;15.45;;;;;;;-5.41;71.37;100062.97;1788701;80;25395;-75
2022/01/08 06:06:41;;;;;;;32.70;15.30;;;;;;;-5.42;71.33;100067.95;1789492;80;25571;-75
2022/01/08 06:09:07;;;;;;;39.13;16.55;;;;;;;-5.41;71.37;100067.75;1788107;80;25773;-75
2022/01/08 06:11:34;;;;;;;40.25;16.15;;;;;;;-5.40;71.28;100070.66;1788159;80;25447;-75
2022/01/08 06:14:02;;;;;;;41.58;16.20;;;;;;;-5.41;71.27;100078.78;1788115;80;27891;-75
2022/01/08 06:16:34;;;;;;;42.85;16.80;;;;;;;-5.40;71.29;100074.62;1788040;80;25615;-75
2022/01/08 06:18:58;;;;;;;;;;;;;;;-5.40;71.27;100063.27;1790132;80;25393;-75
2022/01/08 06:21:25;;;;;;;39.10;16.27;;;;;;;-5.41;71.28;100070.38;1788160;80;25827;-75
2022/01/08 06:23:51;;;;;;;38.95;17.20;;;;;;;-5.42;71.29;100073.23;1788288;80;25619;-75
2022/01/08 06:26:17;;;;;;;35.63;16.62;;;;;;;-5.44;71.26;100078.19;1788286;80;27409;-75
2022/01/08 06:28:44;;;;;;;34.67;15.85;;;;;;;-5.46;71.31;100069.69;1788182;80;25543;-75
2022/01/08 06:31:10;;;;;;;34.88;16.50;;;;;;;-5.48;71.28;100067.77;1788202;80;25534;-74
2022/01/08 06:33:36;;;;;;;37.23;16.62;;;;;;;-5.48;71.26;100069.61;1788544;80;25679;-75
2022/01/08 06:36:03;;;;;;;39.13;16.02;;;;;;;-5.50;71.37;100072.94;1763226;80;25170;-75
2022/01/08 06:38:29;;;;;;;41.63;17.70;;;;;;;-5.53;71.38;100066.79;1788695;80;27377;-76
2022/01/08 06:40:56;;;;;;;44.77;17.80;;;;;;;-5.52;71.35;100077.61;1788155;80;25597;-77
2022/01/08 06:43:22;;;;;;;33.98;15.80;;;;;;;-5.53;71.50;100072.86;1788247;80;25591;-75
2022/01/08 06:45:49;;;;;;;36.15;15.58;;;;;;;-5.54;71.43;100070.43;1788253;80;25787;-75
2022/01/08 06:48:15;;;;;;;39.27;16.27;;;;;;;-5.56;71.49;100065.88;1761923;80;25557;-75
2022/01/08 06:50:42;;;;;;;35.70;16.35;;;;;;;-5.57;71.53;100062.41;1788227;80;27850;-76
2022/01/08 06:53:09;;;;;;;37.73;17.45;;;;;;;-5.57;71.49;100064.25;1788174;80;25439;-76
2022/01/08 06:55:35;;;;;;;36.23;16.77;;;;;;;-5.58;71.62;100069.20;1788242;80;25444;-76
2022/01/08 06:58:03;;;;;;;40.50;16.95;;;;;;;-5.59;71.58;100062.34;1788233;80;25796;-75
2022/01/08 07:00:29;;;;;;;38.00;16.57;;;;;;;-5.60;71.68;100070.77;1788275;80;25369;-76
2022/01/08 07:02:56;;;;;;;35.10;15.55;;;;;;;-5.60;71.74;100072.56;1788290;80;27353;-76
2022/01/08 07:05:23;;;;;;;43.87;17.05;;;;;;;-5.63;71.80;100075.92;1789149;80;25595;-74
2022/01/08 07:07:52;;;;;;;34.03;15.55;;;;;;;-5.63;71.77;100060.11;1789407;80;25610;-76
2022/01/08 07:10:19;;;;;;;35.58;15.28;;;;;;;-5.61;71.89;100055.16;1761624;80;25618;-76
2022/01/08 07:12:45;;;;;;;38.45;16.37;;;;;;;-5.63;71.92;100056.16;1788263;80;25383;-76
2022/01/08 07:15:12;;;;;;;43.35;17.62;;;;;;;-5.62;71.89;100063.55;1788230;80;27373;-76
2022/01/08 07:17:40;;;;;;;38.13;15.75;;;;;;;-5.59;71.83;100057.06;1788143;80;25530;-76
2022/01/08 07:20:08;;;;;;;35.58;15.23;;;;;;;-5.57;71.78;100062.41;1788249;80;25478;-76
2022/01/08 07:22:35;;;;;;;36.68;16.90;;;;;;;-5.56;71.83;100064.56;1762175;80;25715;-76
2022/01/08 07:25:03;;;;;;;44.63;17.67;;;;;;;-5.55;71.82;100058.25;1788274;80;25511;-76
2022/01/08 07:27:32;;;;;;;35.80;16.23;;;;;;;-5.55;71.74;100052.50;1788231;80;27317;-76
2022/01/08 07:30:04;;;;;;;44.38;18.32;;;;;;;-5.52;71.82;100063.91;1788224;80;25379;-76
2022/01/08 07:32:31;;;;;;;34.08;15.50;;;;;;;-5.48;71.80;100055.11;1761235;80;25569;-76
2022/01/08 07:34:57;;;;;;;39.60;16.50;;;;;;;-5.46;71.75;100057.02;1789445;80;26370;-76
2022/01/08 07:37:23;;;;;;;37.28;16.17;;;;;;;-5.41;71.77;100055.05;1789401;80;25566;-76
2022/01/08 07:39:50;;;;;;;42.30;16.95;;;;;;;-5.38;71.85;100046.73;1788234;80;27317;-75
2022/01/08 07:42:17;;;;;;;38.75;17.50;;;;;;;-5.31;71.67;100045.70;1788140;80;25456;-75
2022/01/08 07:44:43;;;;;;;34.53;15.85;;;;;;;-5.30;71.52;100045.98;1788124;80;25455;-75
2022/01/08 07:47:10;;;;;;;40.48;18.02;;;;;;;-5.25;71.44;100044.84;1781128;80;25620;-74
2022/01/08 07:49:36;;;;;;;37.58;17.52;;;;;;;-5.21;71.40;100043.93;1760529;81;25415;-75
2022/01/08 07:52:03;;;;;;;40.05;16.35;;;;;;;-5.15;71.43;100044.91;1773801;80;27312;-75
2022/01/08 07:54:30;;;;;;;36.80;15.90;;;;;;;-5.07;71.65;100040.70;1773686;80;25415;-76
2022/01/08 07:56:56;;;;;;;41.77;16.97;;;;;;;-4.96;71.58;100040.01;1745461;80;25640;-75
2022/01/08 07:59:22;;;;;;;39.53;16.85;;;;;;;-4.86;71.21;100042.71;1773799;80;25718;-75
2022/01/08 08:01:49;;;;;;;35.40;15.95;;;;;;;-4.70;71.37;100039.04;1773877;80;25543;-75
2022/01/08 08:04:15;;;;;;;38.83;17.25;;;;;;;-4.48;71.08;100043.13;1746193;80;27543;-75
2022/01/08 08:06:48;;;;;;;37.30;16.60;;;;;;;-4.25;71.20;100031.45;1747116;80;25791;-74
2022/01/08 08:09:15;;;;;;;37.60;17.42;;;;;;;-4.00;70.96;100037.20;1773737;80;25419;-74
2022/01/08 08:11:43;;;;;;;44.48;18.20;;;;;;;-3.82;69.91;100036.41;1773761;80;25613;-74
2022/01/08 08:14:10;;;;;;;42.30;18.65;;;;;;;-3.60;69.80;100025.67;1773851;80;25402;-74
2022/01/08 08:16:36;;;;;;;33.83;16.15;;;;;;;-3.38;69.78;100026.53;1744193;80;28047;-74
2022/01/08 08:19:03;;;;;;;39.95;17.82;;;;;;;-3.09;68.88;100028.89;1773757;80;25531;-75
2022/01/08 08:21:30;;;;;;;40.52;18.12;;;;;;;-2.72;69.98;100028.77;1773833;80;25447;-75
2022/01/08 08:23:56;;;;;;;40.50;18.65;;;;;;;-2.41;66.47;100026.05;1773804;80;26246;-75
2022/01/08 08:26:23;;;;;;;40.45;17.55;;;;;;;-2.17;68.02;100026.33;1744111;80;25578;-75
2022/01/08 08:28:49;;;;;;;36.45;18.32;;;;;;;-1.76;68.08;100026.40;1773825;80;27433;-75
2022/01/08 08:31:16;;;;;;;36.73;18.12;;;;;;;-1.42;67.81;100028.67;1775897;80;25445;-75
2022/01/08 08:33:43;;;;;;;34.05;17.30;;;;;;;-1.06;66.15;100030.66;1777071;80;25422;-75
2022/01/08 08:36:09;;;;;;;33.90;16.95;;;;;;;-0.84;63.96;100024.67;1777512;80;25787;-74
2022/01/08 08:38:36;;;;;;;38.20;17.85;;;;;;;-0.70;65.08;100027.28;1777223;80;25565;-70
2022/01/08 08:41:02;;;;;;;41.58;16.62;;;;;;;-0.42;65.02;100029.08;1776787;80;27310;-71
2022/01/08 08:43:29;;;;;;;36.70;17.50;;;;;;;-0.21;64.01;100036.82;1776600;80;25682;-70
2022/01/08 08:45:55;;;;;;;35.13;17.73;;;;;;;0.03;64.01;100029.18;1776695;80;25466;-71
2022/01/08 08:48:22;;;;;;;35.52;17.70;;;;;;;0.28;61.89;100028.72;1776621;80;25706;-72
2022/01/08 08:50:48;;;;;;;35.45;17.00;;;;;;;0.34;61.52;100021.05;1776816;80;25393;-71
2022/01/08 08:53:15;;;;;;;39.65;18.32;;;;;;;0.13;60.97;100020.01;1776821;80;28038;-71
2022/01/08 08:55:42;;;;;;;34.78;17.00;;;;;;;-0.03;59.85;100011.83;1776559;80;25907;-71
2022/01/08 08:58:08;;;;;;;39.18;17.57;;;;;;;-0.27;60.34;100009.10;1776763;80;25496;-71
2022/01/08 09:00:35;;;;;;;36.55;18.02;;;;;;;-0.51;59.20;100003.97;1776769;80;26142;-71
2022/01/08 09:03:01;;;;;;;34.60;16.73;;;;;;;-0.80;60.17;100006.70;1776874;80;25404;-70
2022/01/08 09:05:28;;;;;;;39.98;17.50;;;;;;;-1.01;60.06;100001.55;1776870;80;27066;-70
2022/01/08 09:07:54;;;;;;;38.45;18.20;;;;;;;-1.17;60.66;100001.02;1776772;80;25563;-71
2022/01/08 09:10:25;;;;;;;40.12;17.30;;;;;;;-1.22;61.58;100003.05;1776836;80;25450;-70
2022/01/08 09:12:49;;;;;;;33.45;16.37;;;;;;;-1.30;60.60;100002.09;1776293;80;26339;-71
2022/01/08 09:15:25;;;;;;;34.20;17.12;;;;;;;-1.36;61.73;100010.48;1776876;80;25390;-71
2022/01/08 09:17:48;;;;;;;31.23;17.23;;;;;;;-1.38;60.94;100009.92;1775636;80;27982;-70
2022/01/08 09:20:16;;;;;;;36.15;16.20;;;;;;;-1.49;60.81;100010.77;1776692;80;25382;-70
2022/01/08 09:22:43;;;;;;;33.45;17.52;;;;;;;-1.46;62.28;100014.77;1776821;80;25428;-70
2022/01/08 09:25:11;;;;;;;37.05;17.62;;;;;;;-1.44;61.64;100016.70;1776769;80;25415;-70
2022/01/08 09:27:38;;;;;;;40.58;17.62;;;;;;;-1.49;60.80;100019.25;1776845;80;25554;-70
2022/01/08 09:30:06;;;;;;;46.88;20.17;;;;;;;-1.50;62.07;100011.80;1776676;80;27358;-69
2022/01/08 09:32:33;;;;;;;41.88;19.60;;;;;;;-1.49;61.57;100011.30;1750466;80;25582;-71
2022/01/08 09:35:01;;;;;;;38.35;17.95;;;;;;;-1.57;61.21;100002.64;1776872;80;25643;-70
2022/01/08 09:37:27;;;;;;;42.13;19.90;;;;;;;-1.55;61.83;100001.91;1776810;80;25534;-70
2022/01/08 09:39:54;;;;;;;41.35;18.32;;;;;;;-1.51;62.33;99995.08;1776814;80;25580;-70
2022/01/08 09:42:20;;;;;;;34.40;16.97;;;;;;;-1.40;62.53;99992.62;1776848;80;27390;-69
2022/01/08 09:44:47;;;;;;;36.30;18.00;;;;;;;-1.32;62.18;99985.08;1750444;80;25392;-71
2022/01/08 09:47:14;;;;;;;48.52;18.98;;;;;;;-1.25;62.29;99982.81;1783266;79;25575;-71
2022/01/08 09:49:41;;;;;;;38.75;19.07;;;;;;;-1.18;61.38;99984.26;1787764;80;26193;-71
2022/01/08 09:52:08;;;;;;;37.40;18.37;;;;;;;-1.17;61.77;99989.06;1787701;80;25623;-69
2022/01/08 09:54:35;;;;;;;39.55;19.05;;;;;;;-1.13;60.42;99988.86;1787810;80;27904;-70
2022/01/08 09:57:02;;;;;;;38.88;18.02;;;;;;;-1.06;61.67;99977.56;1761200;80;25655;-70
2022/01/08 09:59:29;;;;;;;36.98;18.55;;;;;;;-1.03;61.65;99973.11;1787942;80;25772;-70
2022/01/08 10:01:59;;;;;;;36.50;18.17;;;;;;;-0.94;61.51;99974.84;1787903;80;25625;-70
2022/01/08 10:04:29;;;;;;;41.77;18.50;;;;;;;-0.91;61.31;99965.08;1788008;80;26100;-70
2022/01/08 10:07:25;;;;;;;34.15;18.75;;;;;;;-0.92;60.09;99966.11;1761660;80;27340;-70
2022/01/08 10:10:01;;;;;;;40.95;18.70;;;;;;;-0.97;60.36;99968.68;1787503;79;25616;-70
2022/01/08 10:12:53;;;;;;;39.40;18.17;;;;;;;-1.09;60.35;99971.93;1787674;79;25670;-71
2022/01/08 10:18:31;;;;;;;37.10;19.48;;;;;;;-1.09;60.75;99979.89;1788249;80;25701;-71
2022/01/08 10:20:59;;;;;;;36.58;17.62;;;;;;;-1.11;60.73;99975.35;1788451;80;27424;-71
2022/01/08 10:23:29;;;;;;;36.20;17.15;;;;;;;-1.16;60.62;99976.89;1790027;80;25585;-70
2022/01/08 10:26:07;;;;;;;35.63;18.32;;;;;;;-1.21;60.94;99966.19;1789701;80;26072;-69
2022/01/08 10:28:53;;;;;;;38.28;18.40;;;;;;;-1.21;61.04;99964.03;1760482;80;25694;-70
2022/01/08 10:31:39;;;;;;;38.60;18.37;;;;;;;-1.21;61.19;99963.53;1746517;80;25770;-70
2022/01/08 10:34:12;;;;;;;39.53;17.77;;;;;;;-1.13;62.20;99968.42;1739747;82;27468;-70
2022/01/08 10:36:44;;;;;;;38.90;18.70;;;;;;;-1.02;61.97;99965.44;1758727;81;25657;-70
2022/01/08 10:39:20;;;;;;;39.13;19.35;;;;;;;-0.97;60.76;99957.55;1757702;81;25677;-70
2022/01/08 10:41:51;;;;;;;59.03;20.35;;;;;;;-0.98;61.77;99963.91;1758692;81;26355;-69
2022/01/08 10:44:30;;;;;;;39.18;18.32;;;;;;;-0.92;61.48;99965.31;1732931;81;25587;-70
2022/01/08 10:47:26;;;;;;;38.78;18.62;;;;;;;-0.85;60.53;99961.47;1758406;81;29438;-70
2022/01/08 10:50:06;;;;;;;41.68;18.67;;;;;;;-0.72;60.77;99952.89;1765198;81;25726;-70
2022/01/08 10:52:48;;;;;;;36.98;19.55;;;;;;;-0.48;60.94;99948.19;1765363;81;25679;-70
2022/01/08 10:55:31;;;;;;;33.73;18.45;;;;;;;-0.39;60.87;99937.44;1765301;81;25668;-71
2022/01/08 10:57:58;;;;;;;37.33;17.87;;;;;;;-0.29;61.11;99932.77;1765433;81;26275;-71
2022/01/08 11:00:32;;;;;;;41.90;19.12;;;;;;;-0.16;60.58;99928.42;1765324;81;27382;-71
2022/01/08 11:02:59;;;;;;;38.88;18.87;;;;;;;-0.18;60.46;99923.88;1765345;81;25756;-71
2022/01/08 11:05:27;;;;;;;41.63;18.77;;;;;;;-0.17;60.39;99916.70;1765408;81;25578;-71
2022/01/08 11:08:11;;;;;;;41.45;18.87;;;;;;;0.12;60.83;99918.14;1765446;81;26249;-71
2022/01/08 11:10:38;;;;;;;43.33;18.55;;;;;;;0.52;62.45;99912.16;1764342;81;25482;-69
2022/01/08 11:13:08;;;;;;;35.10;18.12;;;;;;;0.88;60.89;99917.81;1765368;81;27362;-73
2022/01/08 11:15:49;;;;;;;;;;;;;;;0.99;59.35;99914.69;1735275;81;25729;-73
2022/01/08 11:18:05;;;;;;;41.02;17.85;;;;;;;1.48;60.34;99912.66;1738923;81;25705;-74
2022/01/08 11:20:33;;;;;;;34.80;17.57;;;;;;;1.87;59.64;99920.84;1765862;81;25603;-74
2022/01/08 11:23:02;;;;;;;33.08;17.60;;;;;;;2.11;58.95;99915.89;1765978;81;25730;-74
2022/01/08 11:25:35;;;;;;;32.63;17.23;;;;;;;2.28;59.09;99910.85;1766078;81;27435;-74
2022/01/08 11:28:18;;;;;;;34.88;18.27;;;;;;;2.39;57.47;99921.84;1765265;80;25650;-75
2022/01/08 11:30:48;;;;;;;31.00;16.87;;;;;;;2.13;56.12;99918.27;1765949;81;25362;-74
2022/01/08 11:33:30;;;;;;;43.83;19.25;;;;;;;1.83;55.50;99923.23;1732680;81;25651;-74
2022/01/08 11:35:56;;;;;;;35.08;18.15;;;;;;;1.53;55.87;99913.73;1765603;81;25685;-72
2022/01/08 11:38:26;;;;;;;35.98;18.67;;;;;;;1.24;56.53;99909.58;1765955;81;27420;-73
2022/01/08 11:40:59;;;;;;;38.25;18.30;;;;;;;0.99;56.48;99908.86;1765839;81;25681;-73